Time;durP1;ratioP1;P1;durP2;ratioP2;P2;SDS_P1;SDS_P2;PMS_P1;PMS_P2;Temp;Humidity;BMP_temperature;BMP_pressure;BME280_temperature;BME280_humidity;BME280_pressure;Samples;Min_cycle;Max_cycle;Signal;HPM_P1;HPM_P2
2022/04/26 03:36:12;;;;;;;1.65;1.30;;;19.10;45.40;18.20;101105.00;;;;5023325;28;20044;-72
2022/04/26 03:38:58;;;;;;;2.78;1.48;;;19.10;45.40;18.20;101106.00;;;;5032783;28;20128;-71
2022/04/26 03:41:45;;;;;;;4.03;1.80;;;19.00;45.30;18.20;101106.00;;;;5039173;28;20036;-71
2022/04/26 03:44:31;;;;;;;1.83;1.30;;;19.00;45.30;18.20;101114.00;;;;5028119;28;20069;-71
2022/04/26 03:47:17;;;;;;;3.03;1.65;;;19.00;45.30;18.20;101105.00;;;;5037384;28;20053;-71
2022/04/26 03:50:03;;;;;;;2.00;1.30;;;19.00;45.30;18.20;101111.00;;;;5034969;28;20044;-71
2022/04/26 03:52:52;;;;;;;1.20;1.10;;;19.00;45.40;18.20;101109.00;;;;5033289;28;20041;-71
2022/04/26 03:55:38;;;;;;;2.72;1.75;;;19.00;45.40;18.20;101109.00;;;;5032877;28;20045;-71
2022/04/26 03:58:26;;;;;;;2.72;1.63;;;19.10;45.40;18.20;101107.00;;;;5029775;28;20577;-71
2022/04/26 04:01:12;;;;;;;2.25;1.60;;;19.00;45.30;18.20;101108.00;;;;5031241;28;20069;-71
2022/04/26 04:03:58;;;;;;;3.55;1.70;;;19.10;45.40;18.20;101109.00;;;;5037956;28;20053;-71
2022/04/26 04:06:44;;;;;;;2.38;1.42;;;19.00;45.30;18.20;101114.00;;;;5033226;28;20037;-71
2022/04/26 04:09:30;;;;;;;1.83;1.38;;;19.00;45.40;18.20;101119.00;;;;5019501;28;20045;-71
2022/04/26 04:12:16;;;;;;;3.88;1.85;;;19.00;45.30;18.20;101125.00;;;;5030771;28;20790;-71
2022/04/26 04:15:02;;;;;;;3.15;1.95;;;19.00;45.30;18.20;101128.00;;;;5029470;28;20041;-71
2022/04/26 04:17:48;;;;;;;2.42;1.50;;;19.00;45.30;18.20;101121.00;;;;5017451;28;20046;-72
2022/04/26 04:20:34;;;;;;;2.42;1.42;;;19.00;45.40;18.20;101128.00;;;;5032613;28;20491;-71
2022/04/26 04:23:21;;;;;;;4.95;1.70;;;19.00;45.30;18.20;101129.00;;;;5030167;28;20045;-71
2022/04/26 04:26:07;;;;;;;3.05;1.52;;;19.00;45.30;18.20;101127.00;;;;5004287;28;20091;-71
2022/04/26 04:28:53;;;;;;;1.92;1.13;;;19.00;45.30;18.20;101132.00;;;;5032139;28;20091;-71
2022/04/26 04:31:40;;;;;;;2.42;1.30;;;19.00;45.40;18.20;101139.00;;;;5034208;28;20060;-71
2022/04/26 04:34:27;;;;;;;3.60;1.75;;;19.00;45.30;18.20;101139.00;;;;5031883;28;20115;-71
2022/04/26 04:37:13;;;;;;;2.28;1.75;;;19.00;45.30;18.20;101143.00;;;;5031067;28;20075;-71
2022/04/26 04:39:59;;;;;;;2.60;1.60;;;19.00;45.30;18.20;101141.00;;;;5015304;28;20475;-71
2022/04/26 04:42:45;;;;;;;2.08;1.40;;;19.00;45.30;18.20;101148.00;;;;5033956;28;20471;-71
2022/04/26 04:45:31;;;;;;;4.45;1.50;;;19.00;45.30;18.20;101147.00;;;;5033211;28;20593;-71
2022/04/26 04:48:17;;;;;;;1.98;1.50;;;19.00;45.30;18.20;101143.00;;;;5037979;28;20095;-72
2022/04/26 04:51:03;;;;;;;4.13;1.45;;;19.00;45.30;18.20;101149.00;;;;5035922;28;20041;-71
2022/04/26 04:53:49;;;;;;;2.28;1.67;;;19.00;45.30;18.20;101160.00;;;;5038215;28;20149;-71
2022/04/26 04:56:35;;;;;;;2.17;1.52;;;19.00;45.40;18.20;101153.00;;;;5036220;28;20041;-71
2022/04/26 04:59:21;;;;;;;3.58;1.67;;;19.00;45.30;18.20;101163.00;;;;5034384;28;20037;-71
2022/04/26 05:02:08;;;;;;;3.45;1.73;;;19.00;45.30;18.20;101160.00;;;;5037862;28;20041;-71
2022/04/26 05:04:54;;;;;;;2.78;1.67;;;19.00;45.30;18.20;101159.00;;;;5031756;28;20063;-71
2022/04/26 05:07:40;;;;;;;1.95;1.33;;;19.10;45.40;18.20;101167.00;;;;5034525;28;20096;-71
2022/04/26 05:10:26;;;;;;;3.28;1.42;;;18.90;45.30;18.20;101171.00;;;;5015679;28;20495;-72
2022/04/26 05:13:12;;;;;;;2.28;1.58;;;19.00;45.40;18.20;101169.00;;;;5006322;28;20519;-72
2022/04/26 05:15:58;;;;;;;2.22;1.52;;;19.00;45.30;18.20;101170.00;;;;5040068;28;20045;-72
2022/04/26 05:18:44;;;;;;;2.97;1.40;;;19.00;45.40;18.20;101164.00;;;;5036119;28;20041;-72
2022/04/26 05:21:30;;;;;;;2.70;1.52;;;18.90;45.30;18.20;101173.00;;;;5043393;28;20040;-72
2022/04/26 05:27:34;;;;;;;1.98;1.45;;;18.90;45.30;18.20;101177.00;;;;5034391;28;20103;-71
2022/04/26 05:30:20;;;;;;;4.55;2.00;;;18.90;45.70;18.20;101180.00;;;;5025016;28;20481;-71
2022/04/26 05:33:06;;;;;;;2.17;1.52;;;18.90;45.40;18.10;101180.00;;;;5039726;28;20038;-71
2022/04/26 05:35:52;;;;;;;2.50;1.65;;;19.00;45.40;18.10;101184.00;;;;5017262;28;20046;-71
2022/04/26 05:38:38;;;;;;;2.17;1.58;;;19.00;45.40;18.20;101187.00;;;;5020499;28;20041;-71
2022/04/26 05:41:24;;;;;;;2.70;1.52;;;18.90;45.30;18.10;101182.00;;;;5036908;28;20056;-71
2022/04/26 05:44:10;;;;;;;2.15;1.55;;;19.00;45.40;18.10;101184.00;;;;5036143;28;20041;-71
2022/04/26 05:46:56;;;;;;;3.00;1.77;;;19.00;45.40;18.20;101185.00;;;;5036555;28;20045;-71
2022/04/26 05:49:42;;;;;;;2.60;1.95;;;19.00;45.40;18.20;101189.00;;;;5021760;28;20056;-71
2022/04/26 05:52:28;;;;;;;2.72;1.83;;;18.90;45.30;18.20;101187.00;;;;5031459;28;20033;-71
2022/04/26 05:55:14;;;;;;;4.07;1.90;;;18.90;45.30;18.20;101189.00;;;;5032743;28;20045;-71
2022/04/26 05:58:02;;;;;;;2.65;1.60;;;19.00;45.40;18.10;101188.00;;;;5034588;28;20048;-71
2022/04/26 06:00:48;;;;;;;2.13;1.60;;;19.00;45.40;18.20;101182.00;;;;5016932;28;20395;-71
2022/04/26 06:03:34;;;;;;;3.80;1.80;;;19.10;45.40;18.20;101182.00;;;;5037809;28;20044;-71
2022/04/26 06:06:20;;;;;;;3.42;1.77;;;19.00;45.40;18.20;101188.00;;;;5036550;28;20045;-71
2022/04/26 06:09:06;;;;;;;2.58;1.70;;;19.00;45.40;18.10;101190.00;;;;5021251;28;20037;-71
2022/04/26 06:11:52;;;;;;;4.20;2.10;;;19.00;45.40;18.10;101204.00;;;;5035889;28;20052;-71
2022/04/26 06:14:38;;;;;;;3.22;1.90;;;19.00;45.40;18.10;101198.00;;;;5037139;28;20048;-71
2022/04/26 06:17:24;;;;;;;2.90;1.70;;;19.00;45.40;18.20;101208.00;;;;5037572;28;20044;-71
2022/04/26 06:20:11;;;;;;;2.92;2.13;;;19.00;45.40;18.20;101211.00;;;;5023352;28;20923;-71
2022/04/26 06:22:57;;;;;;;5.00;2.13;;;19.00;45.40;18.10;101212.00;;;;5036685;28;20041;-71
2022/04/26 06:25:43;;;;;;;3.67;2.00;;;18.90;45.50;18.10;101212.00;;;;5034876;28;20657;-71
2022/04/26 06:28:29;;;;;;;3.10;1.98;;;18.90;45.40;18.10;101218.00;;;;5031746;28;20045;-71
2022/04/26 06:31:15;;;;;;;3.08;1.75;;;19.00;45.50;18.20;101214.00;;;;5037132;28;20485;-71
2022/04/26 06:34:01;;;;;;;3.67;1.73;;;18.90;45.50;18.10;101213.00;;;;5036851;28;20045;-71
2022/04/26 06:36:47;;;;;;;2.88;2.05;;;19.00;45.50;18.10;101221.00;;;;5035978;28;20034;-71
2022/04/26 06:39:33;;;;;;;2.38;1.88;;;19.00;45.50;18.10;101224.00;;;;5033680;28;20048;-71
2022/04/26 06:42:20;;;;;;;3.55;2.03;;;19.00;45.50;18.20;101223.00;;;;5037665;28;20132;-71
2022/04/26 06:45:06;;;;;;;1.90;1.70;;;18.90;45.50;18.20;101227.00;;;;5022803;28;20037;-70
2022/04/26 06:47:54;;;;;;;4.35;1.80;;;19.00;45.50;18.20;101222.00;;;;5029541;28;20049;-71
2022/04/26 06:50:41;;;;;;;4.78;2.17;;;18.90;45.50;18.20;101219.00;;;;5039462;28;20049;-71
2022/04/26 06:53:27;;;;;;;3.28;2.05;;;19.00;45.50;18.20;101235.00;;;;5009639;28;20048;-71
2022/04/26 06:56:13;;;;;;;3.88;2.20;;;19.00;45.50;18.20;101242.00;;;;5039072;28;20041;-71
2022/04/26 06:58:59;;;;;;;5.00;1.98;;;18.90;45.50;18.20;101232.00;;;;5035932;28;20041;-71
2022/04/26 07:01:52;;;;;;;3.25;2.03;;;19.00;45.50;18.20;101228.00;;;;5034692;28;20068;-71
2022/04/26 07:04:51;;;;;;;3.17;2.30;;;19.00;45.50;18.20;101230.00;;;;5029129;28;20178;-71
2022/04/26 07:07:38;;;;;;;5.25;1.95;;;19.00;45.50;18.20;101226.00;;;;5043806;28;20048;-71
2022/04/26 07:10:28;;;;;;;5.55;2.15;;;19.00;45.50;18.20;101228.00;;;;5027652;28;20115;-71
2022/04/26 07:13:18;;;;;;;5.18;2.28;;;19.00;45.50;18.20;101228.00;;;;5036150;28;20040;-71
2022/04/26 07:16:05;;;;;;;3.95;2.33;;;19.10;45.60;18.20;101239.00;;;;5037100;28;20038;-71
2022/04/26 07:18:51;;;;;;;4.28;2.13;;;19.00;45.50;18.20;101231.00;;;;5036452;28;20041;-71
2022/04/26 07:21:38;;;;;;;5.03;2.30;;;19.00;45.50;18.20;101234.00;;;;5034153;28;20040;-71
2022/04/26 07:24:24;;;;;;;5.43;2.35;;;19.10;45.60;18.20;101228.00;;;;5032133;28;20068;-71
2022/04/26 07:27:11;;;;;;;5.60;2.63;;;19.00;45.50;18.20;101233.00;;;;5037045;28;20936;-71
2022/04/26 07:29:57;;;;;;;3.93;2.10;;;19.10;45.60;18.20;101241.00;;;;5024726;28;20140;-71
2022/04/26 07:35:48;;;;;;;3.80;1.95;;;19.00;45.60;18.20;101244.00;;;;5035511;28;20522;-71
2022/04/26 07:38:35;;;;;;;2.95;2.22;;;19.10;45.70;18.20;101250.00;;;;5008349;28;20406;-71
2022/04/26 07:41:21;;;;;;;5.70;2.67;;;19.10;45.70;18.20;101250.00;;;;5022028;28;20091;-71
2022/04/26 07:44:08;;;;;;;3.92;2.20;;;18.90;45.60;18.20;101250.00;;;;5032818;28;20390;-71
2022/04/26 07:46:54;;;;;;;3.47;2.30;;;19.10;45.70;18.20;101251.00;;;;5037191;28;20041;-71
2022/04/26 07:49:40;;;;;;;5.60;2.30;;;19.10;45.70;18.20;101254.00;;;;5023427;28;20485;-71
2022/04/26 07:52:28;;;;;;;3.83;2.47;;;19.10;45.70;18.20;101247.00;;;;5022810;28;20523;-71
2022/04/26 07:55:14;;;;;;;3.78;2.00;;;19.10;45.80;18.20;101257.00;;;;5029969;28;20041;-71
2022/04/26 07:58:00;;;;;;;3.65;2.38;;;19.10;45.80;18.20;101257.00;;;;5038377;28;20398;-71
2022/04/26 08:00:46;;;;;;;4.05;2.40;;;19.10;45.80;18.20;101259.00;;;;5040197;28;20045;-71
2022/04/26 08:03:33;;;;;;;3.92;2.30;;;19.10;45.80;18.20;101272.00;;;;5032064;28;20048;-71
2022/04/26 08:06:20;;;;;;;6.75;2.88;;;19.00;45.70;18.20;101263.00;;;;5038917;28;20048;-71
2022/04/26 08:09:06;;;;;;;6.45;2.45;;;19.10;45.80;18.20;101282.00;;;;5021349;28;20033;-71
2022/04/26 08:11:52;;;;;;;4.72;2.30;;;19.10;45.90;18.20;101278.00;;;;5035145;28;20383;-71
2022/04/26 08:14:38;;;;;;;3.85;2.50;;;19.00;45.80;18.20;101286.00;;;;5036302;28;20111;-71
2022/04/26 08:17:24;;;;;;;4.68;2.33;;;19.10;45.90;18.20;101279.00;;;;5028119;28;20449;-71
2022/04/26 08:20:10;;;;;;;5.15;2.83;;;19.10;45.90;18.20;101295.00;;;;5023907;28;20164;-71
2022/04/26 08:22:56;;;;;;;7.60;3.05;;;19.10;45.90;18.20;101295.00;;;;5036263;28;20059;-71
2022/04/26 08:28:47;;;;;;;4.22;2.80;;;19.10;46.70;18.20;101299.00;;;;5045448;28;20033;-71
2022/04/26 08:31:37;;;;;;;5.38;2.92;;;19.10;46.00;18.20;101291.00;;;;5038559;28;20041;-71
2022/04/26 08:34:23;;;;;;;4.60;3.05;;;19.10;46.00;18.30;101297.00;;;;5038828;28;20079;-71
2022/04/26 08:37:10;;;;;;;3.90;3.10;;;19.20;46.10;18.20;101297.00;;;;5024089;28;20445;-71
2022/04/26 08:39:56;;;;;;;3.65;2.83;;;19.10;46.00;18.30;101296.00;;;;5031399;28;20049;-71
2022/04/26 08:42:44;;;;;;;5.13;3.00;;;19.10;46.00;18.30;101288.00;;;;5036449;28;20040;-71
2022/04/26 08:45:30;;;;;;;7.43;3.25;;;19.10;46.10;18.30;101299.00;;;;5035617;28;20379;-71
2022/04/26 08:51:21;;;;;;;5.20;2.80;;;19.10;46.10;18.30;101301.00;;;;5013367;28;20545;-71
2022/04/26 08:54:07;;;;;;;4.55;3.13;;;19.20;46.10;18.30;101305.00;;;;5034466;28;20040;-71
2022/04/26 08:56:53;;;;;;;3.65;2.75;;;19.10;46.10;18.30;101298.00;;;;5039986;28;20041;-71
2022/04/26 08:59:49;;;;;;;4.40;3.28;;;19.10;46.10;18.30;101306.00;;;;5034295;28;20438;-71
2022/04/26 09:02:35;;;;;;;6.68;3.33;;;19.10;46.20;18.30;101307.00;;;;5040091;28;20085;-71
2022/04/26 09:05:21;;;;;;;6.00;3.60;;;19.10;46.10;18.30;101312.00;;;;5034211;28;20468;-71
2022/04/26 09:08:20;;;;;;;6.20;3.47;;;19.10;46.10;18.30;101311.00;;;;5031732;28;20052;-71
2022/04/26 09:11:24;;;;;;;6.32;3.28;;;19.10;46.20;18.30;101310.00;;;;5023060;28;20045;-71
2022/04/26 09:14:32;;;;;;;4.65;3.22;;;19.10;46.20;18.30;101315.00;;;;5037603;28;20426;-71
2022/04/26 09:17:19;;;;;;;5.20;3.47;;;19.10;46.20;18.30;101311.00;;;;5029999;28;20044;-71
2022/04/26 09:20:08;;;;;;;8.23;3.55;;;19.20;46.20;18.30;101311.00;;;;5014686;28;20150;-71
2022/04/26 09:22:59;;;;;;;6.18;3.65;;;19.20;46.20;18.30;101321.00;;;;5039973;28;20123;-71
2022/04/26 09:25:46;;;;;;;5.07;3.25;;;19.20;46.30;18.30;101322.00;;;;5036609;28;20071;-71
2022/04/26 09:28:33;;;;;;;6.40;3.65;;;19.30;46.30;18.30;101318.00;;;;5024738;28;20095;-71
2022/04/26 09:31:24;;;;;;;7.90;4.20;;;19.20;46.30;18.30;101323.00;;;;5037967;28;20048;-71
2022/04/26 09:34:12;;;;;;;6.15;3.80;;;19.20;46.30;18.30;101325.00;;;;5023440;28;20044;-71
2022/04/26 09:36:58;;;;;;;6.68;4.18;;;19.20;46.30;18.30;101327.00;;;;5020841;28;20045;-71
2022/04/26 09:40:02;;;;;;;6.65;4.15;;;19.20;46.30;18.30;101334.00;;;;5001841;28;20049;-71
2022/04/26 09:42:50;;;;;;;6.40;3.88;;;19.20;46.30;18.30;101344.00;;;;5014175;28;20132;-71
2022/04/26 09:45:55;;;;;;;4.50;3.55;;;19.20;46.30;18.30;101343.00;;;;5009428;28;20123;-71
2022/04/26 09:48:42;;;;;;;6.72;4.10;;;19.20;46.30;18.30;101342.00;;;;5017476;28;20037;-71
2022/04/26 09:51:28;;;;;;;6.40;4.57;;;19.30;46.30;18.30;101356.00;;;;5026822;28;20526;-71
2022/04/26 09:54:14;;;;;;;6.07;4.30;;;19.30;46.40;18.30;101357.00;;;;5023104;28;20251;-70
2022/04/26 09:57:00;;;;;;;7.72;4.57;;;19.20;46.30;18.40;101352.00;;;;5018612;28;20457;-70
2022/04/26 09:59:46;;;;;;;6.97;4.72;;;19.30;46.40;18.40;101352.00;;;;5000087;28;20041;-70
2022/04/26 10:02:32;;;;;;;6.25;4.88;;;19.40;46.40;18.40;101357.00;;;;5004370;28;20502;-70
2022/04/26 10:05:22;;;;;;;9.20;5.10;;;19.20;46.30;18.40;101363.00;;;;5022678;28;20060;-71
2022/04/26 10:08:08;;;;;;;6.82;4.57;;;19.20;46.30;18.40;101367.00;;;;5015476;28;20049;-71
2022/04/26 10:10:54;;;;;;;8.15;5.15;;;19.30;46.40;18.40;101370.00;;;;5007242;28;20422;-71
2022/04/26 10:13:43;;;;;;;6.95;4.55;;;19.30;46.40;18.40;101369.00;;;;5019574;28;20144;-70
2022/04/26 10:16:29;;;;;;;6.78;4.85;;;19.30;46.40;18.40;101369.00;;;;5013167;28;20041;-71
2022/04/26 10:19:16;;;;;;;5.72;4.40;;;19.30;46.40;18.40;101370.00;;;;5012723;28;20033;-70
2022/04/26 10:22:02;;;;;;;5.78;4.50;;;19.30;46.40;18.40;101373.00;;;;5039130;28;20793;-69
2022/04/26 10:25:08;;;;;;;6.95;4.47;;;19.30;46.30;18.40;101380.00;;;;5024886;28;20351;-70
2022/04/26 10:28:16;;;;;;;6.85;4.68;;;19.30;46.40;18.40;101364.00;;;;5034815;28;20075;-71
2022/04/26 10:31:03;;;;;;;6.25;4.25;;;19.30;46.40;18.40;101371.00;;;;5043739;28;20044;-71
2022/04/26 10:33:49;;;;;;;7.90;4.88;;;19.30;46.40;18.40;101366.00;;;;5007181;28;20049;-70
2022/04/26 10:36:35;;;;;;;8.25;5.35;;;19.30;46.30;18.40;101364.00;;;;5038162;28;20059;-70
2022/04/26 10:39:34;;;;;;;7.28;4.88;;;19.30;46.30;18.40;101369.00;;;;5038560;28;20912;-70
2022/04/26 10:42:21;;;;;;;6.10;4.00;;;19.30;46.40;18.40;101364.00;;;;5017654;28;20041;-70
2022/04/26 10:45:09;;;;;;;5.88;4.47;;;19.30;46.30;18.40;101368.00;;;;5036795;28;20040;-71
2022/04/26 10:47:55;;;;;;;4.47;4.00;;;19.40;46.30;18.40;101364.00;;;;5009351;28;20135;-71
2022/04/26 10:50:42;;;;;;;7.70;4.15;;;19.40;46.20;18.50;101371.00;;;;5032521;28;20048;-72
2022/04/26 10:53:45;;;;;;;6.75;4.90;;;19.40;46.20;18.40;101377.00;;;;5042502;28;20049;-71
2022/04/26 10:56:32;;;;;;;6.10;4.90;;;19.40;46.20;18.50;101369.00;;;;5027927;28;20033;-71
2022/04/26 10:59:18;;;;;;;5.90;4.45;;;19.40;46.20;18.50;101378.00;;;;5018985;28;20057;-70
2022/04/26 11:02:04;;;;;;;5.40;4.45;;;19.40;46.10;18.50;101380.00;;;;5021913;28;20124;-71
2022/04/26 11:04:59;;;;;;;6.32;4.45;;;19.40;46.10;18.50;101381.00;;;;5008298;28;20549;-71
2022/04/26 11:07:47;;;;;;;5.82;4.32;;;19.40;46.10;18.50;101380.00;;;;5031501;28;20048;-71
2022/04/26 11:13:38;;;;;;;5.25;4.38;;;19.40;46.00;18.50;101386.00;;;;5019297;28;20040;-71
2022/04/26 11:16:24;;;;;;;5.18;3.75;;;19.40;46.00;18.50;101380.00;;;;5021625;28;20049;-71
2022/04/26 11:19:10;;;;;;;7.40;4.18;;;19.50;46.00;18.50;101388.00;;;;5037688;28;20286;-71
2022/04/26 11:22:07;;;;;;;6.82;4.15;;;19.40;46.00;18.50;101395.00;;;;4997010;28;20041;-71
2022/04/26 11:28:14;;;;;;;6.22;3.90;;;19.40;45.90;18.50;101398.00;;;;5011472;28;20045;-71
2022/04/26 11:31:00;;;;;;;6.38;3.65;;;19.40;45.90;18.50;101398.00;;;;5030643;28;20044;-71
2022/04/26 11:33:49;;;;;;;5.05;3.67;;;19.40;45.90;18.50;101394.00;;;;5032773;28;20411;-71
2022/04/26 11:36:38;;;;;;;8.25;4.55;;;19.40;45.90;18.50;101406.00;;;;5031782;28;20044;-71
2022/04/26 11:39:25;;;;;;;6.32;4.57;;;19.40;45.90;18.50;101396.00;;;;5010537;28;20052;-71
2022/04/26 11:42:12;;;;;;;6.55;3.75;;;19.40;45.80;18.50;101402.00;;;;5031720;28;20475;-71
2022/04/26 11:45:03;;;;;;;5.93;3.78;;;19.50;45.90;18.50;101389.00;;;;5035971;28;20037;-71
2022/04/26 11:47:49;;;;;;;5.00;3.75;;;19.40;45.90;18.50;101400.00;;;;5030744;28;20072;-71
2022/04/26 11:50:35;;;;;;;5.03;3.75;;;19.50;45.90;18.50;101404.00;;;;5031396;28;20043;-71
2022/04/26 11:53:30;;;;;;;5.53;3.70;;;19.50;45.80;18.60;101402.00;;;;5029920;28;20041;-71
2022/04/26 11:56:35;;;;;;;6.20;3.67;;;19.50;45.90;18.60;101402.00;;;;5012742;28;20041;-71
2022/04/26 11:59:22;;;;;;;4.65;3.70;;;19.60;45.90;18.60;101408.00;;;;5022779;28;20041;-71
2022/04/26 12:02:08;;;;;;;5.70;4.07;;;19.50;45.80;18.60;101408.00;;;;5017401;28;20261;-71
2022/04/26 12:04:54;;;;;;;5.60;3.47;;;19.50;45.80;18.60;101402.00;;;;5004514;28;20060;-71
2022/04/26 12:07:40;;;;;;;6.72;3.80;;;19.50;45.80;18.60;101404.00;;;;5006658;28;20069;-71
2022/04/26 12:10:33;;;;;;;5.80;3.83;;;19.60;45.80;18.60;101407.00;;;;5010194;28;20036;-71
2022/04/26 12:13:31;;;;;;;4.22;3.30;;;19.60;45.80;18.60;101407.00;;;;5017797;28;20520;-71
2022/04/26 12:16:19;;;;;;;;;;;19.60;45.80;18.60;101414.00;;;;5036989;28;20068;-71
2022/04/26 12:19:05;;;;;;;7.03;3.78;;;19.60;45.70;18.60;101408.00;;;;4998041;28;19917;-71
2022/04/26 12:21:54;;;;;;;5.60;4.10;;;19.70;45.60;18.60;101414.00;;;;5039713;28;20033;-71
2022/04/26 12:24:51;;;;;;;8.23;3.45;;;19.70;45.70;18.60;101413.00;;;;5033490;28;20052;-71
2022/04/26 12:27:37;;;;;;;5.55;3.78;;;19.60;45.70;18.60;101415.00;;;;5027754;28;20033;-71
2022/04/26 12:30:23;;;;;;;6.25;3.22;;;19.70;45.70;18.60;101409.00;;;;5037339;28;20429;-71
2022/04/26 12:33:09;;;;;;;4.57;3.53;;;19.70;45.70;18.60;101410.00;;;;4992164;28;20609;-71
2022/04/26 12:36:05;;;;;;;5.20;3.67;;;19.70;45.70;18.60;101409.00;;;;5036889;28;20048;-71
2022/04/26 12:38:51;;;;;;;5.53;3.67;;;19.70;45.70;18.60;101404.00;;;;5033910;28;20037;-71
2022/04/26 12:41:48;;;;;;;4.85;3.63;;;19.60;45.60;18.60;101408.00;;;;5041722;28;20037;-71
2022/04/26 12:44:34;;;;;;;4.75;3.42;;;19.70;45.70;18.70;101412.00;;;;5016318;28;20195;-71
2022/04/26 12:50:29;;;;;;;5.32;3.97;;;19.70;45.60;18.70;101401.00;;;;5019046;28;20040;-71
2022/04/26 12:53:28;;;;;;;6.95;3.70;;;19.70;45.60;18.70;101402.00;;;;5020240;28;20060;-71
2022/04/26 12:56:14;;;;;;;5.53;3.28;;;19.70;45.60;18.70;101407.00;;;;5024425;28;20032;-71
2022/04/26 12:59:00;;;;;;;5.93;3.90;;;19.70;45.60;18.70;101407.00;;;;5028834;28;20486;-71
2022/04/26 13:01:46;;;;;;;6.28;3.60;;;19.70;45.50;18.70;101410.00;;;;5004517;28;20566;-71
2022/04/26 13:04:32;;;;;;;5.78;3.63;;;19.70;45.50;18.70;101413.00;;;;5035767;28;20441;-73
2022/04/26 13:07:18;;;;;;;5.03;3.83;;;19.70;45.50;18.70;101421.00;;;;5040713;28;20461;-72
2022/04/26 13:10:05;;;;;;;6.78;4.20;;;19.80;45.50;18.70;101401.00;;;;5033267;28;20446;-76
2022/04/26 13:12:51;;;;;;;6.97;3.83;;;19.70;45.40;18.70;101407.00;;;;5005643;28;20040;-71
2022/04/26 13:15:37;;;;;;;6.22;5.20;;;19.80;45.50;18.70;101404.00;;;;5040584;28;20046;-71
2022/04/26 13:18:23;;;;;;;6.88;4.55;;;19.70;45.40;18.70;101407.00;;;;5023161;28;20051;-71
2022/04/26 13:21:10;;;;;;;11.02;5.72;;;19.80;46.20;18.70;101411.00;;;;5024441;28;20474;-71
2022/04/26 13:23:57;;;;;;;6.28;4.57;;;19.80;45.40;18.70;101404.00;;;;5004550;28;20033;-71
2022/04/26 13:26:44;;;;;;;7.55;4.80;;;19.80;45.40;18.70;101409.00;;;;5034933;28;20080;-71
2022/04/26 13:29:30;;;;;;;6.28;4.75;;;19.80;45.30;18.70;101404.00;;;;5036721;28;20076;-71
2022/04/26 13:32:17;;;;;;;6.72;3.97;;;19.80;45.30;18.70;101400.00;;;;5037836;28;20052;-71
2022/04/26 13:35:05;;;;;;;8.63;4.40;;;19.80;45.30;18.80;101407.00;;;;5008110;28;20044;-71
2022/04/26 13:37:52;;;;;;;6.30;4.43;;;19.80;45.30;18.80;101408.00;;;;5018178;28;20051;-71
2022/04/26 13:40:39;;;;;;;4.90;4.40;;;19.80;45.20;18.80;101410.00;;;;5018999;28;20440;-71
2022/04/26 13:43:25;;;;;;;6.47;4.30;;;19.80;45.20;18.80;101401.00;;;;5031844;28;20084;-71
2022/04/26 13:46:11;;;;;;;6.60;4.38;;;19.90;45.20;18.80;101392.00;;;;5034347;28;20122;-71
2022/04/26 13:48:57;;;;;;;7.80;4.40;;;19.90;45.20;18.80;101403.00;;;;5036689;28;20056;-71
2022/04/26 13:51:43;;;;;;;4.45;3.85;;;19.90;45.20;18.80;101398.00;;;;5030259;28;20048;-71
2022/04/26 13:54:29;;;;;;;6.72;4.55;;;19.90;45.20;18.80;101409.00;;;;5036735;28;20069;-71
2022/04/26 13:57:16;;;;;;;6.05;4.88;;;19.90;45.20;18.80;101405.00;;;;5006732;28;20049;-71
2022/04/26 14:00:02;;;;;;;7.03;4.20;;;19.90;45.10;18.80;101405.00;;;;5019901;28;20501;-71
2022/04/26 14:02:49;;;;;;;6.25;4.05;;;19.90;45.10;18.80;101407.00;;;;5033826;28;20187;-71
2022/04/26 14:05:35;;;;;;;5.85;3.75;;;19.90;45.00;18.80;101410.00;;;;5026704;28;20141;-71
2022/04/26 14:08:21;;;;;;;6.35;3.85;;;19.90;45.00;18.80;101405.00;;;;5036271;28;20488;-71
2022/04/26 14:11:07;;;;;;;7.13;4.30;;;19.90;45.00;18.80;101410.00;;;;5032321;28;20467;-71
2022/04/26 14:23:09;;;;;;;6.25;3.83;;;20.00;44.90;18.80;101408.00;;;;5024354;28;20055;-71
2022/04/26 14:25:55;;;;;;;5.45;3.72;;;20.00;45.00;18.80;101408.00;;;;5024700;28;20048;-72
2022/04/26 14:28:43;;;;;;;5.60;3.80;;;20.00;44.90;18.80;101411.00;;;;5031209;28;20068;-72
2022/04/26 14:31:29;;;;;;;;;;;20.00;44.90;18.80;101416.00;;;;5027087;28;20499;-71
2022/04/26 14:34:16;;;;;;;4.97;3.75;;;20.00;45.00;18.80;101412.00;;;;5033549;28;19921;-71
2022/04/26 14:37:03;;;;;;;4.90;3.50;;;20.00;44.80;18.80;101414.00;;;;5019404;28;20120;-71
2022/04/26 14:39:50;;;;;;;7.72;3.40;;;20.00;44.80;18.80;101410.00;;;;5033464;28;20236;-72
2022/04/26 14:42:38;;;;;;;5.93;3.67;;;20.00;44.80;18.80;101418.00;;;;5003753;28;20051;-71
2022/04/26 14:45:24;;;;;;;4.15;3.25;;;19.90;44.80;18.80;101418.00;;;;5037546;28;20046;-72
2022/04/26 14:48:10;;;;;;;4.07;3.53;;;20.00;44.80;18.90;101421.00;;;;5031836;28;20119;-71
2022/04/26 14:50:56;;;;;;;5.80;3.65;;;20.00;45.40;18.90;101426.00;;;;5018415;28;20047;-73
2022/04/26 14:53:42;;;;;;;6.35;3.58;;;20.00;44.70;18.90;101416.00;;;;5031927;28;20329;-70
2022/04/26 14:56:28;;;;;;;4.13;3.13;;;20.00;44.70;18.90;101415.00;;;;5037068;28;20029;-71
2022/04/26 14:59:18;;;;;;;5.55;3.50;;;20.00;44.60;18.90;101422.00;;;;5035212;28;20044;-70
2022/04/26 15:02:04;;;;;;;5.50;3.20;;;20.00;44.60;18.90;101419.00;;;;5032066;28;20068;-70
2022/04/26 15:04:51;;;;;;;5.22;3.13;;;20.00;44.60;18.90;101429.00;;;;5032737;28;20407;-71
2022/04/26 15:10:42;;;;;;;4.13;2.92;;;20.00;44.50;18.90;101421.00;;;;5025910;28;20033;-70
2022/04/26 15:16:38;;;;;;;4.22;3.35;;;20.10;45.20;18.90;101417.00;;;;5020300;28;20033;-70
2022/04/26 15:19:24;;;;;;;5.13;3.22;;;20.10;44.40;18.90;101427.00;;;;5038452;28;20059;-71
2022/04/26 15:22:11;;;;;;;4.50;3.70;;;20.10;44.40;18.90;101424.00;;;;5034077;28;20045;-70
2022/04/26 15:24:57;;;;;;;4.75;3.15;;;20.10;44.40;18.90;101429.00;;;;5036769;28;21462;-71
2022/04/26 15:27:44;;;;;;;3.58;2.92;;;20.10;44.40;18.90;101428.00;;;;5035380;28;20195;-70
2022/04/26 15:30:30;;;;;;;5.38;2.92;;;20.10;44.40;18.90;101431.00;;;;5033209;28;20028;-70
2022/04/26 15:33:19;;;;;;;4.47;3.00;;;20.10;44.30;18.90;101426.00;;;;5029964;28;20474;-70
2022/04/26 15:36:05;;;;;;;4.75;3.47;;;20.10;44.30;18.90;101427.00;;;;5021501;28;20041;-70
2022/04/26 15:38:56;;;;;;;3.58;2.38;;;20.10;44.30;18.90;101426.00;;;;5032035;28;20041;-70
2022/04/26 15:41:42;;;;;;;4.40;3.00;;;20.10;44.30;18.90;101432.00;;;;5037017;28;20049;-70
2022/04/26 15:44:28;;;;;;;4.03;2.83;;;20.10;44.90;19.00;101437.00;;;;5038338;28;20049;-70
2022/04/26 15:47:15;;;;;;;3.72;2.80;;;20.20;44.30;19.00;101442.00;;;;5034228;28;20053;-70
2022/04/26 15:50:01;;;;;;;5.95;3.30;;;20.10;44.20;19.00;101436.00;;;;5020881;28;20037;-70
2022/04/26 15:52:47;;;;;;;4.72;3.28;;;20.20;44.20;19.00;101440.00;;;;5016583;28;20045;-70
2022/04/26 15:55:36;;;;;;;3.40;2.90;;;20.10;44.10;19.00;101439.00;;;;5039683;28;20033;-70
2022/04/26 15:58:22;;;;;;;8.30;3.90;;;20.20;44.20;19.00;101441.00;;;;5034427;28;20501;-70
2022/04/26 16:01:09;;;;;;;9.65;3.80;;;20.10;43.80;19.00;101436.00;;;;5035620;28;20259;-70
2022/04/26 16:03:55;;;;;;;36.92;5.90;;;20.10;43.90;19.00;101440.00;;;;5021491;28;20076;-70
2022/04/26 16:06:44;;;;;;;35.90;6.13;;;20.20;44.00;19.00;101443.00;;;;5036581;28;20041;-71
2022/04/26 16:21:50;;;;;;;11.65;3.40;;;20.20;44.00;19.00;101445.00;;;;5025638;28;20482;-71
2022/04/26 16:24:38;;;;;;;5.97;3.15;;;20.20;44.00;19.00;101445.00;;;;5019095;28;20285;-71
2022/04/26 16:27:26;;;;;;;8.27;3.70;;;20.20;43.90;19.00;101446.00;;;;5031397;28;20045;-71
2022/04/26 16:30:12;;;;;;;6.50;3.60;;;20.20;43.90;19.00;101441.00;;;;5037536;28;20051;-71
2022/04/26 16:33:01;;;;;;;5.53;3.72;;;20.20;44.00;19.00;101444.00;;;;5036933;28;20048;-71
2022/04/26 16:35:47;;;;;;;3.60;2.63;;;20.20;43.90;19.00;101451.00;;;;5010891;28;20152;-71
2022/04/26 16:38:34;;;;;;;9.23;3.38;;;20.20;43.80;19.00;101454.00;;;;5022122;28;20049;-73
2022/04/26 16:41:23;;;;;;;5.15;3.28;;;20.20;43.80;19.00;101453.00;;;;5039494;28;20313;-71